createdAt,value
2023-03-29T00:00:13.451Z,1760.00
2023-03-29T00:01:34.779Z,1760.00
2023-03-29T00:02:14.446Z,1760.00
2023-03-29T00:03:13.550Z,1716.00
2023-03-29T00:04:13.594Z,1757.00
2023-03-29T00:05:13.408Z,1750.00
2023-03-29T00:06:13.416Z,1798.00
2023-03-29T00:07:13.405Z,1777.00
2023-03-29T00:08:13.386Z,1758.00
2023-03-29T00:09:13.394Z,1750.00
2023-03-29T00:10:13.407Z,1747.00
2023-03-29T00:11:13.390Z,1735.00
2023-03-29T00:12:13.370Z,1730.00
2023-03-29T00:13:13.385Z,1660.00
2023-03-29T00:14:13.362Z,1696.00
2023-03-29T00:15:13.354Z,1728.00
2023-03-29T00:16:13.340Z,1768.00
2023-03-29T00:17:13.472Z,1759.00
2023-03-29T00:18:13.348Z,1677.00
2023-03-29T00:19:13.342Z,1737.00
2023-03-29T00:20:13.338Z,1696.00
2023-03-29T00:21:13.328Z,1699.00
2023-03-29T00:22:13.316Z,1686.00
2023-03-29T00:23:13.368Z,1757.00
2023-03-29T00:24:13.479Z,1752.00
2023-03-29T00:25:13.487Z,1694.00
2023-03-29T00:26:13.500Z,1682.00
2023-03-29T00:27:13.508Z,1732.00
2023-03-29T00:28:13.523Z,1692.00
2023-03-29T00:29:13.506Z,1686.00
2023-03-29T00:30:13.631Z,1719.00
2023-03-29T00:31:13.760Z,1725.00
2023-03-29T00:32:13.715Z,1683.00
2023-03-29T00:33:13.669Z,1682.00
2023-03-29T00:34:13.684Z,1679.00
2023-03-29T00:35:13.704Z,1666.00
2023-03-29T00:36:13.707Z,1639.00
2023-03-29T00:37:13.713Z,1630.00
2023-03-29T00:38:13.742Z,1588.00
2023-03-29T00:39:13.723Z,1656.00
2023-03-29T00:40:13.846Z,1646.00
2023-03-29T00:41:13.857Z,1631.00
2023-03-29T00:42:13.867Z,1661.00
2023-03-29T00:43:13.860Z,1657.00
2023-03-29T00:44:13.877Z,1643.00
2023-03-29T00:45:13.893Z,1697.00
2023-03-29T00:46:13.944Z,1653.00
2023-03-29T00:47:13.931Z,1581.00
2023-03-29T00:48:13.973Z,1633.00
2023-03-29T00:49:13.970Z,1589.00
2023-03-29T00:50:13.945Z,1582.00
2023-03-29T00:51:13.977Z,1628.00
2023-03-29T00:52:14.014Z,1645.00
2023-03-29T00:53:14.013Z,1626.00
2023-03-29T00:54:14.024Z,1614.00
2023-03-29T00:55:14.020Z,1612.00
2023-03-29T00:56:14.098Z,1595.00
2023-03-29T00:57:14.116Z,1631.00
2023-03-29T00:58:14.090Z,1655.00
2023-03-29T00:59:14.101Z,1651.00
2023-03-29T01:00:14.200Z,1698.00
2023-03-29T01:01:14.297Z,1653.00
2023-03-29T01:02:14.402Z,1651.00
2023-03-29T01:03:14.467Z,1614.00
2023-03-29T01:04:14.275Z,1666.00
2023-03-29T01:05:14.317Z,1655.00
2023-03-29T01:06:14.337Z,1649.00
2023-03-29T01:07:14.425Z,1642.00
2023-03-29T01:08:14.366Z,1612.00
2023-03-29T01:09:14.371Z,1634.00
2023-03-29T01:10:14.471Z,1632.00
2023-03-29T01:11:14.466Z,1659.00
2023-03-29T01:12:14.484Z,1640.00
2023-03-29T01:13:14.472Z,1648.00
2023-03-29T01:14:14.495Z,1646.00
2023-03-29T01:15:14.511Z,1677.00
2023-03-29T01:16:14.620Z,1668.00
2023-03-29T01:17:14.624Z,1663.00
2023-03-29T01:18:14.635Z,1679.00
2023-03-29T01:19:14.628Z,1603.00
2023-03-29T01:20:14.655Z,1665.00
2023-03-29T01:21:14.680Z,1689.00
2023-03-29T01:22:14.673Z,1701.00
2023-03-29T01:23:14.694Z,1663.00
2023-03-29T01:24:14.701Z,1696.00
2023-03-29T01:25:14.707Z,1645.00
2023-03-29T01:26:14.734Z,1646.00
2023-03-29T01:27:14.792Z,1653.00
2023-03-29T01:28:14.789Z,1588.00
2023-03-29T01:29:14.795Z,1641.00
2023-03-29T01:30:14.891Z,1661.00
2023-03-29T01:31:14.848Z,1649.00
2023-03-29T01:32:14.854Z,1657.00
2023-03-29T01:33:14.866Z,1643.00
2023-03-29T01:34:14.863Z,1666.00
2023-03-29T01:35:14.901Z,1635.00
2023-03-29T01:36:14.934Z,1589.00
2023-03-29T01:37:14.924Z,1604.00
2023-03-29T01:38:14.958Z,1644.00
2023-03-29T01:39:14.967Z,1546.00
2023-03-29T01:40:14.975Z,1578.00
2023-03-29T01:41:14.985Z,1607.00
2023-03-29T01:42:14.990Z,1604.00
2023-03-29T01:43:15.046Z,1588.00
2023-03-29T01:44:14.996Z,1587.00
2023-03-29T01:45:15.003Z,1570.00
2023-03-29T01:46:15.126Z,1556.00
2023-03-29T01:47:15.137Z,1569.00
2023-03-29T01:48:15.170Z,1544.00
2023-03-29T01:49:15.156Z,1552.00
2023-03-29T01:50:15.135Z,1521.00
2023-03-29T01:51:15.149Z,1558.00
2023-03-29T01:52:15.273Z,1525.00
2023-03-29T01:53:15.275Z,1525.00
2023-03-29T01:54:15.282Z,1538.00
2023-03-29T01:55:15.273Z,1561.00
2023-03-29T01:56:15.307Z,1566.00
2023-03-29T01:57:15.407Z,1555.00
2023-03-29T01:58:15.334Z,1533.00
2023-03-29T01:59:15.335Z,1450.00
2023-03-29T02:00:15.378Z,1471.00
2023-03-29T02:01:15.433Z,1511.00
2023-03-29T02:02:15.470Z,1546.00
2023-03-29T02:03:15.516Z,1516.00
2023-03-29T02:04:15.408Z,1547.00
2023-03-29T02:05:15.413Z,1558.00
2023-03-29T02:06:15.441Z,1528.00
2023-03-29T02:07:15.439Z,1539.00
2023-03-29T02:08:15.489Z,1580.00
2023-03-29T02:09:15.486Z,1565.00
2023-03-29T02:10:15.462Z,1528.00
2023-03-29T02:11:15.577Z,1557.00
2023-03-29T02:12:15.690Z,1481.00
2023-03-29T02:13:15.675Z,1478.00
2023-03-29T02:14:15.729Z,1533.00
2023-03-29T02:15:15.698Z,1472.00
2023-03-29T02:16:15.769Z,1526.00
2023-03-29T02:17:15.743Z,1546.00
2023-03-29T02:18:15.776Z,1491.00
2023-03-29T02:19:15.768Z,1499.00
2023-03-29T02:20:15.797Z,1480.00
2023-03-29T02:21:15.807Z,1530.00
2023-03-29T02:22:15.808Z,1480.00
2023-03-29T02:23:15.857Z,1481.00
2023-03-29T02:24:15.862Z,1490.00
2023-03-29T02:25:15.852Z,1439.00
2023-03-29T02:26:15.882Z,1450.00
2023-03-29T02:27:15.912Z,1513.00
2023-03-29T02:28:16.002Z,1452.00
2023-03-29T02:29:16.014Z,1503.00
2023-03-29T02:30:16.052Z,1487.00
2023-03-29T02:31:16.081Z,1469.00
2023-03-29T02:32:16.080Z,1492.00
2023-03-29T02:33:16.072Z,1523.00
2023-03-29T02:34:16.148Z,1515.00
2023-03-29T02:35:16.168Z,1505.00
2023-03-29T02:36:16.200Z,1382.00
2023-03-29T02:37:16.193Z,1440.00
2023-03-29T02:38:16.207Z,1479.00
2023-03-29T02:39:16.269Z,1475.00
2023-03-29T02:40:16.349Z,1442.00
2023-03-29T02:41:16.304Z,1530.00
2023-03-29T02:42:16.310Z,1469.00
2023-03-29T02:43:16.321Z,1412.00
2023-03-29T02:44:16.342Z,1420.00
2023-03-29T02:45:16.374Z,1430.00
2023-03-29T02:46:16.403Z,1454.00
2023-03-29T02:47:16.397Z,1461.00
2023-03-29T02:48:16.414Z,1498.00
2023-03-29T02:49:16.451Z,1553.00
2023-03-29T02:50:16.489Z,1533.00
2023-03-29T02:51:18.616Z,1475.00
2023-03-29T02:52:16.472Z,1468.00
2023-03-29T02:53:16.462Z,1444.00
2023-03-29T02:54:16.459Z,1469.00
2023-03-29T02:55:16.439Z,1507.00
2023-03-29T02:56:16.445Z,1505.00
2023-03-29T02:57:16.521Z,1537.00
2023-03-29T02:58:16.443Z,1497.00
2023-03-29T02:59:16.437Z,1517.00
2023-03-29T03:00:16.411Z,1552.00
2023-03-29T03:01:16.405Z,1534.00
2023-03-29T03:02:16.479Z,1486.00
2023-03-29T03:03:16.530Z,1519.00
2023-03-29T03:04:16.436Z,1536.00
2023-03-29T03:05:16.389Z,1528.00
2023-03-29T03:06:16.386Z,1467.00
2023-03-29T03:07:16.375Z,1516.00
2023-03-29T03:08:16.400Z,1540.00
2023-03-29T03:09:16.362Z,1551.00
2023-03-29T03:10:16.357Z,1517.00
2023-03-29T03:11:16.339Z,1529.00
2023-03-29T03:12:16.354Z,1510.00
2023-03-29T03:13:16.333Z,1535.00
2023-03-29T03:14:16.362Z,1535.00
2023-03-29T03:15:16.327Z,1509.00
2023-03-29T03:16:16.318Z,1552.00
2023-03-29T03:17:16.305Z,1581.00
2023-03-29T03:18:16.327Z,1580.00
2023-03-29T03:19:16.333Z,1592.00
2023-03-29T03:20:16.272Z,1607.00
2023-03-29T03:21:16.281Z,1555.00
2023-03-29T03:22:16.273Z,1547.00
2023-03-29T03:23:16.283Z,1585.00
2023-03-29T03:24:16.253Z,1570.00
2023-03-29T03:25:16.242Z,1569.00
2023-03-29T03:26:16.265Z,1543.00
2023-03-29T03:27:16.243Z,1549.00
2023-03-29T03:28:16.228Z,1568.00
2023-03-29T03:29:16.213Z,1547.00
2023-03-29T03:30:16.210Z,1560.00
2023-03-29T03:31:16.233Z,1555.00
2023-03-29T03:32:16.196Z,1598.00
2023-03-29T03:33:16.239Z,1578.00
2023-03-29T03:34:16.194Z,1614.00
2023-03-29T03:35:16.190Z,1571.00
2023-03-29T03:36:16.197Z,1521.00
2023-03-29T03:37:16.208Z,1559.00
2023-03-29T03:38:16.166Z,1507.00
2023-03-29T03:39:16.181Z,1526.00
2023-03-29T03:40:16.136Z,1510.00
2023-03-29T03:41:16.128Z,1546.00
2023-03-29T03:42:16.131Z,1531.00
2023-03-29T03:43:16.143Z,1536.00
2023-03-29T03:44:16.135Z,1549.00
2023-03-29T03:45:16.122Z,1509.00
2023-03-29T03:46:16.162Z,1548.00
2023-03-29T03:47:16.102Z,1573.00
2023-03-29T03:48:16.075Z,1505.00
2023-03-29T03:49:16.096Z,1505.00
2023-03-29T03:50:16.109Z,1512.00
2023-03-29T03:51:16.067Z,1530.00
2023-03-29T03:52:16.058Z,1559.00
2023-03-29T03:53:16.064Z,1520.00
2023-03-29T03:54:16.042Z,1534.00
2023-03-29T03:55:16.053Z,1515.00
2023-03-29T03:56:16.038Z,1523.00
2023-03-29T03:57:16.096Z,1514.00
2023-03-29T03:58:16.016Z,1555.00
2023-03-29T03:59:16.025Z,1553.00
2023-03-29T04:00:16.024Z,1567.00
2023-03-29T04:01:16.001Z,1532.00
2023-03-29T04:02:16.013Z,1526.00
2023-03-29T04:03:16.082Z,1543.00
2023-03-29T04:04:16.008Z,1574.00
2023-03-29T04:05:15.986Z,1543.00
2023-03-29T04:06:15.976Z,1475.00
2023-03-29T04:07:15.974Z,1479.00
2023-03-29T04:08:15.965Z,1540.00
2023-03-29T04:09:15.948Z,1565.00
2023-03-29T04:10:15.990Z,1566.00
2023-03-29T04:11:15.956Z,1537.00
2023-03-29T04:12:15.924Z,1539.00
2023-03-29T04:13:15.918Z,1556.00
2023-03-29T04:14:15.927Z,1510.00
2023-03-29T04:15:15.916Z,1478.00
2023-03-29T04:16:15.947Z,1507.00
2023-03-29T04:17:15.895Z,1545.00
2023-03-29T04:18:16.141Z,1525.00
2023-03-29T04:19:15.891Z,1542.00
2023-03-29T04:20:15.876Z,1505.00
2023-03-29T04:21:15.880Z,1514.00
2023-03-29T04:22:15.875Z,1509.00
2023-03-29T04:23:15.863Z,1507.00
2023-03-29T04:24:15.855Z,1481.00
2023-03-29T04:25:15.850Z,1512.00
2023-03-29T04:26:15.881Z,1479.00
2023-03-29T04:27:15.835Z,1503.00
2023-03-29T04:28:15.921Z,1523.00
2023-03-29T04:29:15.934Z,1470.00
2023-03-29T04:30:15.960Z,1482.00
2023-03-29T04:31:15.937Z,1532.00
2023-03-29T04:32:15.942Z,1502.00
2023-03-29T04:33:15.959Z,1527.00
2023-03-29T04:34:15.996Z,1500.00
2023-03-29T04:35:16.006Z,1529.00
2023-03-29T04:36:16.134Z,1516.00
2023-03-29T04:37:16.020Z,1534.00
2023-03-29T04:38:16.031Z,1525.00
2023-03-29T04:39:16.043Z,1551.00
2023-03-29T04:40:16.047Z,1521.00
2023-03-29T04:41:16.064Z,1523.00
2023-03-29T04:42:16.074Z,1505.00
2023-03-29T04:43:16.105Z,1511.00
2023-03-29T04:44:16.187Z,1475.00
2023-03-29T04:45:16.198Z,1497.00
2023-03-29T04:46:16.220Z,1482.00
2023-03-29T04:47:16.215Z,1483.00
2023-03-29T04:48:16.237Z,1466.00
2023-03-29T04:49:16.329Z,1483.00
2023-03-29T04:50:16.349Z,1484.00
2023-03-29T04:51:16.354Z,1457.00
2023-03-29T04:52:16.361Z,1469.00
2023-03-29T04:53:16.414Z,1473.00
2023-03-29T04:54:16.397Z,1485.00
2023-03-29T04:55:16.489Z,1466.00
2023-03-29T04:56:16.498Z,1501.00
2023-03-29T04:57:16.539Z,1506.00
2023-03-29T04:58:16.522Z,1501.00
2023-03-29T04:59:16.543Z,1480.00
2023-03-29T05:00:16.544Z,1499.00
2023-03-29T05:01:16.739Z,1455.00
2023-03-29T05:02:16.667Z,1476.00
2023-03-29T05:03:50.644Z,500.00
2023-03-29T05:04:50.532Z,500.00
2023-03-29T05:05:50.501Z,500.00
2023-03-29T05:06:50.485Z,500.00
2023-03-29T05:07:50.483Z,500.00
2023-03-29T05:08:50.511Z,500.00
2023-03-29T05:09:50.468Z,502.00
2023-03-29T05:10:50.446Z,496.00
2023-03-29T05:11:50.457Z,503.00
2023-03-29T05:12:50.439Z,505.00
2023-03-29T05:13:50.467Z,511.00
2023-03-29T05:14:50.468Z,504.00
2023-03-29T05:15:50.447Z,500.00
2023-03-29T05:16:50.422Z,513.00
2023-03-29T05:17:50.451Z,505.00
2023-03-29T05:18:50.427Z,519.00
2023-03-29T05:19:50.445Z,506.00
2023-03-29T05:20:50.452Z,507.00
2023-03-29T05:21:50.489Z,522.00
2023-03-29T05:22:50.374Z,513.00
2023-03-29T05:23:50.388Z,514.00
2023-03-29T05:24:50.438Z,521.00
2023-03-29T05:25:50.392Z,509.00
2023-03-29T05:26:50.350Z,511.00
2023-03-29T05:27:50.362Z,512.00
2023-03-29T05:28:50.379Z,507.00
2023-03-29T05:29:50.361Z,485.00
2023-03-29T05:30:50.350Z,508.00
2023-03-29T05:31:50.408Z,500.00
2023-03-29T05:32:50.363Z,547.00
2023-03-29T05:33:50.327Z,543.00
2023-03-29T05:34:50.322Z,549.00
2023-03-29T05:35:50.323Z,533.00
2023-03-29T05:36:50.318Z,577.00
2023-03-29T05:37:50.341Z,587.00
2023-03-29T05:38:50.332Z,607.00
2023-03-29T05:39:50.255Z,633.00
2023-03-29T05:40:50.253Z,628.00
2023-03-29T05:41:50.257Z,632.00
2023-03-29T05:42:50.281Z,652.00
2023-03-29T05:43:50.245Z,696.00
2023-03-29T05:44:51.567Z,714.00
2023-03-29T05:45:50.437Z,759.00
2023-03-29T05:46:50.452Z,758.00
2023-03-29T05:47:50.516Z,763.00
2023-03-29T05:48:50.537Z,812.00
2023-03-29T05:49:50.594Z,847.00
2023-03-29T05:50:50.685Z,825.00
2023-03-29T05:51:50.696Z,766.00
2023-03-29T05:52:50.771Z,629.00
2023-03-29T05:53:50.813Z,565.00
2023-03-29T05:54:50.879Z,530.00
2023-03-29T05:55:51.024Z,503.00
2023-03-29T05:56:50.994Z,486.00
2023-03-29T05:57:51.008Z,501.00
2023-03-29T05:58:52.946Z,500.00
2023-03-29T05:59:51.056Z,501.00
2023-03-29T06:00:51.051Z,552.00
2023-03-29T06:01:51.022Z,630.00
2023-03-29T06:02:51.144Z,646.00
2023-03-29T06:03:51.185Z,718.00
2023-03-29T06:04:51.067Z,848.00
2023-03-29T06:05:51.014Z,912.00
2023-03-29T06:06:51.001Z,984.00
2023-03-29T06:07:51.048Z,1035.00
2023-03-29T06:08:51.005Z,1025.00
2023-03-29T06:09:50.974Z,1029.00
2023-03-29T06:10:50.966Z,1047.00
2023-03-29T06:11:50.974Z,994.00
2023-03-29T06:12:51.001Z,991.00
2023-03-29T06:13:50.942Z,1031.00
2023-03-29T06:14:50.944Z,1066.00
2023-03-29T06:15:50.954Z,1010.00
2023-03-29T06:16:50.967Z,1034.00
2023-03-29T06:17:50.988Z,1009.00
2023-03-29T06:18:50.905Z,1024.00
2023-03-29T06:19:50.886Z,1053.00
2023-03-29T06:20:50.907Z,1065.00
2023-03-29T06:21:50.892Z,1106.00
2023-03-29T06:22:50.867Z,1146.00
2023-03-29T06:23:50.861Z,1122.00
2023-03-29T06:24:50.860Z,1154.00
2023-03-29T06:25:51.024Z,1136.00
2023-03-29T06:26:50.857Z,1173.00
2023-03-29T06:27:50.855Z,1202.00
2023-03-29T06:28:52.273Z,1202.00
2023-03-29T06:29:50.844Z,1155.00
2023-03-29T06:30:50.861Z,1066.00
2023-03-29T06:31:50.876Z,1017.00
2023-03-29T06:32:50.852Z,1095.00
2023-03-29T06:33:50.813Z,1036.00
2023-03-29T06:34:50.865Z,1108.00
2023-03-29T06:35:50.851Z,1138.00
2023-03-29T06:36:50.818Z,1132.00
2023-03-29T06:37:50.764Z,1246.00
2023-03-29T06:38:50.771Z,1407.00
2023-03-29T06:39:52.832Z,1399.00
2023-03-29T06:40:50.892Z,1350.00
2023-03-29T06:41:50.948Z,1346.00
2023-03-29T06:42:50.953Z,1365.00
2023-03-29T06:43:50.984Z,1372.00
2023-03-29T06:44:50.994Z,1406.00
2023-03-29T06:45:51.023Z,1445.00
2023-03-29T06:46:52.135Z,1471.00
2023-03-29T06:47:51.574Z,1457.00
2023-03-29T06:48:51.091Z,1444.00
2023-03-29T06:49:51.108Z,1457.00
2023-03-29T06:50:51.137Z,1465.00
2023-03-29T06:51:51.175Z,1451.00
2023-03-29T06:52:51.563Z,1399.00
2023-03-29T06:53:51.205Z,1438.00
2023-03-29T06:54:51.581Z,1461.00
2023-03-29T06:55:51.204Z,1524.00
2023-03-29T06:56:51.273Z,1552.00
2023-03-29T06:57:51.558Z,1610.00
2023-03-29T06:58:51.252Z,1613.00
2023-03-29T06:59:51.297Z,1585.00
2023-03-29T07:00:51.280Z,1573.00
2023-03-29T07:01:51.342Z,1571.00
2023-03-29T07:02:51.569Z,1580.00
2023-03-29T07:03:51.364Z,1574.00
2023-03-29T07:04:51.431Z,1551.00
2023-03-29T07:05:51.366Z,1542.00
2023-03-29T07:06:51.415Z,1518.00
2023-03-29T07:07:51.588Z,1526.00
2023-03-29T07:08:51.480Z,1504.00
2023-03-29T07:09:51.458Z,1500.00
2023-03-29T07:10:51.481Z,1429.00
2023-03-29T07:11:51.528Z,1384.00
2023-03-29T07:12:51.525Z,1390.00
2023-03-29T07:13:51.534Z,1370.00
2023-03-29T07:14:51.609Z,1326.00
2023-03-29T07:15:51.627Z,1332.00
2023-03-29T07:16:51.642Z,1368.00
2023-03-29T07:17:51.649Z,1354.00
2023-03-29T07:18:51.627Z,1360.00
2023-03-29T07:19:51.659Z,1341.00
2023-03-29T07:20:51.674Z,1343.00
2023-03-29T07:21:52.070Z,1333.00
2023-03-29T07:22:51.712Z,1319.00
2023-03-29T07:23:51.708Z,1306.00
2023-03-29T07:24:51.702Z,1199.00
2023-03-29T07:25:51.729Z,1179.00
2023-03-29T07:27:03.222Z,1220.00
2023-03-29T07:27:53.065Z,1222.00
2023-03-29T07:28:51.737Z,1225.00
2023-03-29T07:29:51.741Z,1225.00
2023-03-29T07:30:51.724Z,1230.00
2023-03-29T07:31:51.708Z,1269.00
2023-03-29T07:32:52.085Z,1293.00
2023-03-29T07:33:51.743Z,1291.00
2023-03-29T07:34:51.695Z,1319.00
2023-03-29T07:35:51.727Z,1297.00
2023-03-29T07:36:51.706Z,1319.00
2023-03-29T07:37:52.072Z,1317.00
2023-03-29T07:38:52.932Z,1338.00
2023-03-29T07:39:51.696Z,1355.00
2023-03-29T07:40:51.651Z,1354.00
2023-03-29T07:41:51.668Z,1354.00
2023-03-29T07:42:51.671Z,1370.00
2023-03-29T07:43:51.660Z,1360.00
2023-03-29T07:44:52.085Z,1362.00
2023-03-29T07:45:51.686Z,1336.00
2023-03-29T07:46:51.621Z,1298.00
2023-03-29T07:47:51.689Z,1292.00
2023-03-29T07:48:51.621Z,1239.00
2023-03-29T07:49:52.072Z,1219.00
2023-03-29T07:50:51.601Z,1260.00
2023-03-29T07:51:51.586Z,1275.00
2023-03-29T07:52:52.095Z,1285.00
2023-03-29T07:53:51.568Z,1403.00
2023-03-29T07:54:52.061Z,1528.00
2023-03-29T07:55:51.550Z,1542.00
2023-03-29T07:56:51.574Z,1538.00
2023-03-29T07:57:51.574Z,1507.00
2023-03-29T07:58:51.546Z,1430.00
2023-03-29T07:59:51.559Z,1401.00
2023-03-29T08:00:51.560Z,1382.00
2023-03-29T08:01:51.526Z,1380.00
2023-03-29T08:02:51.539Z,1370.00
2023-03-29T08:03:51.574Z,1305.00
2023-03-29T08:04:51.502Z,1269.00
2023-03-29T08:05:51.489Z,1229.00
2023-03-29T08:06:51.509Z,1142.00
2023-03-29T08:07:51.461Z,1080.00
2023-03-29T08:08:51.516Z,1018.00
2023-03-29T08:09:51.457Z,1049.00
2023-03-29T08:10:51.462Z,1053.00
2023-03-29T08:11:51.455Z,1105.00
2023-03-29T08:12:51.428Z,1038.00
2023-03-29T08:13:51.427Z,1004.00
2023-03-29T08:14:51.574Z,1072.00
2023-03-29T08:15:51.417Z,1105.00
2023-03-29T08:16:51.433Z,1112.00
2023-03-29T08:17:51.445Z,1092.00
2023-03-29T08:18:51.395Z,1077.00
2023-03-29T08:19:51.818Z,1007.00
2023-03-29T08:20:51.375Z,966.00
2023-03-29T08:21:51.345Z,852.00
2023-03-29T08:22:51.354Z,840.00
2023-03-29T08:23:51.364Z,960.00
2023-03-29T08:24:51.599Z,970.00
2023-03-29T08:25:51.337Z,1013.00
2023-03-29T08:26:51.396Z,1014.00
2023-03-29T08:27:51.607Z,1042.00
2023-03-29T08:28:51.344Z,1065.00
2023-03-29T08:29:51.311Z,1081.00
2023-03-29T08:30:51.294Z,1087.00
2023-03-29T08:31:51.295Z,1061.00
2023-03-29T08:32:54.450Z,1079.00
2023-03-29T08:33:51.283Z,992.00
2023-03-29T08:34:51.257Z,1051.00
2023-03-29T08:35:51.334Z,1080.00
2023-03-29T08:36:52.100Z,1081.00
2023-03-29T08:37:51.644Z,1035.00
2023-03-29T08:38:51.231Z,1039.00
2023-03-29T08:39:51.226Z,1055.00
2023-03-29T08:40:51.212Z,1060.00
2023-03-29T08:41:51.236Z,1046.00
2023-03-29T08:42:52.107Z,1061.00
2023-03-29T08:43:51.216Z,1061.00
2023-03-29T08:44:51.192Z,1066.00
2023-03-29T08:45:51.349Z,1086.00
2023-03-29T08:46:51.244Z,1073.00
2023-03-29T08:47:51.238Z,1083.00
2023-03-29T08:48:51.137Z,1081.00
2023-03-29T08:49:51.145Z,1096.00
2023-03-29T08:50:51.135Z,1095.00
2023-03-29T08:51:51.154Z,1104.00
2023-03-29T08:52:51.171Z,1082.00
2023-03-29T08:53:51.112Z,1085.00
2023-03-29T08:54:51.098Z,1091.00
2023-03-29T08:55:51.102Z,1107.00
2023-03-29T08:56:51.223Z,1096.00
2023-03-29T08:57:51.100Z,1107.00
2023-03-29T08:58:51.613Z,1090.00
2023-03-29T08:59:51.069Z,1098.00
2023-03-29T09:00:51.076Z,1098.00
2023-03-29T09:01:51.061Z,1097.00
2023-03-29T09:02:51.143Z,1087.00
2023-03-29T09:03:51.175Z,1091.00
2023-03-29T09:04:51.067Z,1083.00
2023-03-29T09:05:51.023Z,1089.00
2023-03-29T09:06:51.022Z,1093.00
2023-03-29T09:07:51.029Z,1087.00
2023-03-29T09:08:51.108Z,1071.00
2023-03-29T09:09:51.001Z,1084.00
2023-03-29T09:10:51.000Z,1071.00
2023-03-29T09:11:50.984Z,1053.00
2023-03-29T09:12:51.041Z,1048.00
2023-03-29T09:13:51.002Z,1058.00
2023-03-29T09:14:50.951Z,1067.00
2023-03-29T09:15:51.004Z,1057.00
2023-03-29T09:16:50.976Z,1058.00
2023-03-29T09:17:51.165Z,1069.00
2023-03-29T09:18:50.965Z,1061.00
2023-03-29T09:19:50.927Z,1070.00
2023-03-29T09:20:50.949Z,1052.00
2023-03-29T09:21:50.920Z,1076.00
2023-03-29T09:22:51.620Z,1060.00
2023-03-29T09:23:51.022Z,1066.00
2023-03-29T09:24:50.968Z,1063.00
2023-03-29T09:25:53.446Z,1065.00
2023-03-29T09:26:50.872Z,963.00
2023-03-29T09:27:51.182Z,901.00
2023-03-29T09:28:50.920Z,763.00
2023-03-29T09:29:50.914Z,756.00
2023-03-29T09:30:50.879Z,785.00
2023-03-29T09:31:50.931Z,723.00
2023-03-29T09:32:51.132Z,692.00
2023-03-29T09:33:51.135Z,637.00
2023-03-29T09:34:50.867Z,624.00
2023-03-29T09:35:50.869Z,660.00
2023-03-29T09:36:50.871Z,659.00
2023-03-29T09:37:50.803Z,741.00
2023-03-29T09:38:50.791Z,837.00
2023-03-29T09:39:50.800Z,824.00
2023-03-29T09:40:50.767Z,801.00
2023-03-29T09:41:50.768Z,822.00
2023-03-29T09:42:50.785Z,849.00
2023-03-29T09:43:50.764Z,863.00
2023-03-29T09:44:50.742Z,882.00
2023-03-29T09:45:50.800Z,897.00
2023-03-29T09:46:50.747Z,922.00
2023-03-29T09:47:50.788Z,920.00
2023-03-29T09:48:51.152Z,927.00
2023-03-29T09:49:50.717Z,923.00
2023-03-29T09:50:50.762Z,926.00
2023-03-29T09:51:50.715Z,931.00
2023-03-29T09:52:50.727Z,928.00
2023-03-29T09:53:51.115Z,948.00
2023-03-29T09:54:50.713Z,913.00
2023-03-29T09:55:50.748Z,928.00
2023-03-29T09:56:50.792Z,924.00
2023-03-29T09:57:50.701Z,917.00
2023-03-29T09:58:50.680Z,912.00
2023-03-29T09:59:50.668Z,922.00
2023-03-29T10:00:50.752Z,898.00
2023-03-29T10:01:50.679Z,898.00
2023-03-29T10:02:50.737Z,909.00
2023-03-29T10:03:51.174Z,925.00
2023-03-29T10:04:51.113Z,906.00
2023-03-29T10:05:50.633Z,888.00
2023-03-29T10:06:50.674Z,865.00
2023-03-29T10:07:50.623Z,863.00
2023-03-29T10:08:50.606Z,855.00
2023-03-29T10:09:50.630Z,867.00
2023-03-29T10:10:50.613Z,869.00
2023-03-29T10:11:50.628Z,824.00
2023-03-29T10:12:50.563Z,782.00
2023-03-29T10:13:50.626Z,688.00
2023-03-29T10:14:53.500Z,644.00
2023-03-29T10:15:50.540Z,654.00
2023-03-29T10:16:50.616Z,689.00
2023-03-29T10:17:50.558Z,646.00
2023-03-29T10:18:50.512Z,655.00
2023-03-29T10:19:50.651Z,574.00
2023-03-29T10:20:50.549Z,567.00
2023-03-29T10:21:50.477Z,532.00
2023-03-29T10:22:50.576Z,610.00
2023-03-29T10:23:50.544Z,672.00
2023-03-29T10:24:50.640Z,737.00
2023-03-29T10:25:50.456Z,778.00
2023-03-29T10:26:50.472Z,803.00
2023-03-29T10:27:50.458Z,809.00
2023-03-29T10:28:50.436Z,828.00
2023-03-29T10:29:50.452Z,879.00
2023-03-29T10:30:50.425Z,905.00
2023-03-29T10:31:50.510Z,930.00
2023-03-29T10:32:50.490Z,945.00
2023-03-29T10:33:50.404Z,934.00
2023-03-29T10:34:50.394Z,953.00
2023-03-29T10:35:50.448Z,957.00
2023-03-29T10:36:50.415Z,976.00
2023-03-29T10:37:50.388Z,928.00
2023-03-29T10:38:50.357Z,938.00
2023-03-29T10:39:50.377Z,910.00
2023-03-29T10:40:50.352Z,855.00
2023-03-29T10:41:50.385Z,892.00
2023-03-29T10:42:50.345Z,887.00
2023-03-29T10:43:50.345Z,913.00
2023-03-29T10:44:50.372Z,900.00
2023-03-29T10:45:50.376Z,896.00
2023-03-29T10:46:50.326Z,929.00
2023-03-29T10:47:50.369Z,878.00
2023-03-29T10:48:50.322Z,799.00
2023-03-29T10:49:51.067Z,708.00
2023-03-29T10:50:50.293Z,657.00
2023-03-29T10:51:50.312Z,665.00
2023-03-29T10:52:50.327Z,630.00
2023-03-29T10:53:50.273Z,646.00
2023-03-29T10:54:50.293Z,627.00
2023-03-29T10:55:50.259Z,584.00
2023-03-29T10:56:52.343Z,586.00
2023-03-29T10:57:50.296Z,627.00
2023-03-29T10:58:50.238Z,636.00
2023-03-29T10:59:50.691Z,665.00
2023-03-29T11:00:50.226Z,637.00
2023-03-29T11:01:50.275Z,622.00
2023-03-29T11:02:50.347Z,655.00
2023-03-29T11:03:50.273Z,659.00
2023-03-29T11:04:50.680Z,652.00
2023-03-29T11:05:50.211Z,663.00
2023-03-29T11:06:50.167Z,692.00
2023-03-29T11:07:50.234Z,694.00
2023-03-29T11:08:50.150Z,766.00
2023-03-29T11:09:50.159Z,780.00
2023-03-29T11:10:50.176Z,774.00
2023-03-29T11:11:51.583Z,805.00
2023-03-29T11:12:51.198Z,806.00
2023-03-29T11:13:50.185Z,796.00
2023-03-29T11:14:50.712Z,758.00
2023-03-29T11:15:50.740Z,711.00
2023-03-29T11:16:50.178Z,725.00
2023-03-29T11:17:50.194Z,746.00
2023-03-29T11:18:50.181Z,728.00
2023-03-29T11:19:50.144Z,684.00
2023-03-29T11:20:50.152Z,713.00
2023-03-29T11:21:50.193Z,696.00
2023-03-29T11:22:50.221Z,654.00
2023-03-29T11:23:50.278Z,659.00
2023-03-29T11:24:50.375Z,670.00
2023-03-29T11:25:50.498Z,661.00
2023-03-29T11:26:50.447Z,652.00
2023-03-29T11:27:50.502Z,647.00
2023-03-29T11:28:50.566Z,640.00
2023-03-29T11:29:50.641Z,635.00
2023-03-29T11:30:50.754Z,640.00
2023-03-29T11:31:50.811Z,637.00
2023-03-29T11:32:50.864Z,643.00
2023-03-29T11:33:50.836Z,625.00
2023-03-29T11:34:50.892Z,617.00
2023-03-29T11:35:51.027Z,638.00
2023-03-29T11:36:51.048Z,621.00
2023-03-29T11:37:51.215Z,612.00
2023-03-29T11:38:51.124Z,612.00
2023-03-29T11:39:51.191Z,612.00
2023-03-29T11:40:51.247Z,605.00
2023-03-29T11:41:51.315Z,602.00
2023-03-29T11:42:51.377Z,602.00
2023-03-29T11:43:51.454Z,599.00
2023-03-29T11:44:53.414Z,595.00
2023-03-29T11:45:51.500Z,593.00
2023-03-29T11:46:51.521Z,593.00
2023-03-29T11:47:51.491Z,608.00
2023-03-29T11:48:51.466Z,608.00
2023-03-29T11:49:51.471Z,594.00
2023-03-29T11:50:51.455Z,596.00
2023-03-29T11:51:51.442Z,593.00
2023-03-29T11:52:51.436Z,592.00
2023-03-29T11:53:51.416Z,580.00
2023-03-29T11:54:51.421Z,590.00
2023-03-29T11:55:51.684Z,587.00
2023-03-29T11:56:51.488Z,584.00
2023-03-29T11:57:51.676Z,589.00
2023-03-29T11:58:51.397Z,582.00
2023-03-29T11:59:51.393Z,572.00
2023-03-29T12:00:51.361Z,573.00
2023-03-29T12:01:51.386Z,576.00
2023-03-29T12:02:51.695Z,563.00
2023-03-29T12:03:51.444Z,566.00
2023-03-29T12:04:51.366Z,578.00
2023-03-29T12:05:51.354Z,564.00
2023-03-29T12:06:51.355Z,563.00
2023-03-29T12:07:51.325Z,566.00
2023-03-29T12:08:51.316Z,557.00
2023-03-29T12:09:51.316Z,551.00
2023-03-29T12:10:51.322Z,556.00
2023-03-29T12:11:51.309Z,554.00
2023-03-29T12:12:51.662Z,557.00
2023-03-29T12:13:51.273Z,545.00